sensor_id;sensor_type;location;lat;lon;timestamp;pressure;altitude;pressure_sealevel;temperature;humidity
40372;BME280;28564;53.346;-6.554;2022-12-18T00:01:46;100633.64;;;5.34;52.75
40372;BME280;28564;53.346;-6.554;2022-12-18T00:04:16;100626.14;;;5.62;52.81
40372;BME280;28564;53.346;-6.554;2022-12-18T00:06:45;100624.25;;;5.37;52.82
40372;BME280;28564;53.346;-6.554;2022-12-18T00:09:13;100616.26;;;5.65;52.82
40372;BME280;28564;53.346;-6.554;2022-12-18T00:11:40;100619.97;;;5.69;52.87
40372;BME280;28564;53.346;-6.554;2022-12-18T00:14:09;100611.38;;;5.23;52.75
40372;BME280;28564;53.346;-6.554;2022-12-18T00:16:37;100612.27;;;5.45;52.70
40372;BME280;28564;53.346;-6.554;2022-12-18T00:19:05;100620.66;;;5.46;52.57
40372;BME280;28564;53.346;-6.554;2022-12-18T00:21:33;100628.25;;;5.49;52.65
40372;BME280;28564;53.346;-6.554;2022-12-18T00:24:00;100632.03;;;5.52;52.59
40372;BME280;28564;53.346;-6.554;2022-12-18T00:26:29;100636.50;;;5.54;52.55
40372;BME280;28564;53.346;-6.554;2022-12-18T00:28:59;100641.42;;;5.38;52.48
40372;BME280;28564;53.346;-6.554;2022-12-18T00:31:27;100641.59;;;5.71;52.37
40372;BME280;28564;53.346;-6.554;2022-12-18T00:33:54;100642.77;;;5.89;52.17
40372;BME280;28564;53.346;-6.554;2022-12-18T00:36:23;100641.07;;;5.83;52.30
40372;BME280;28564;53.346;-6.554;2022-12-18T00:38:51;100641.64;;;5.97;52.07
40372;BME280;28564;53.346;-6.554;2022-12-18T00:41:18;100635.93;;;6.08;51.82
40372;BME280;28564;53.346;-6.554;2022-12-18T00:43:46;100640.07;;;6.23;51.65
40372;BME280;28564;53.346;-6.554;2022-12-18T00:46:13;100636.78;;;6.38;51.39
40372;BME280;28564;53.346;-6.554;2022-12-18T00:48:41;100632.75;;;6.53;51.29
40372;BME280;28564;53.346;-6.554;2022-12-18T00:51:08;100626.73;;;6.45;51.14
40372;BME280;28564;53.346;-6.554;2022-12-18T00:53:35;100630.51;;;6.57;50.92
40372;BME280;28564;53.346;-6.554;2022-12-18T00:56:03;100625.04;;;6.40;50.68
40372;BME280;28564;53.346;-6.554;2022-12-18T00:58:30;100620.71;;;6.74;50.54
40372;BME280;28564;53.346;-6.554;2022-12-18T01:00:57;100616.67;;;6.80;50.48
40372;BME280;28564;53.346;-6.554;2022-12-18T01:03:25;100614.06;;;6.88;50.43
40372;BME280;28564;53.346;-6.554;2022-12-18T01:05:52;100608.38;;;6.69;50.34
40372;BME280;28564;53.346;-6.554;2022-12-18T01:08:19;100601.17;;;6.74;50.21
40372;BME280;28564;53.346;-6.554;2022-12-18T01:10:47;100600.81;;;7.04;50.14
40372;BME280;28564;53.346;-6.554;2022-12-18T01:13:14;100594.56;;;6.80;50.17
40372;BME280;28564;53.346;-6.554;2022-12-18T01:15:48;100586.03;;;7.13;50.12
40372;BME280;28564;53.346;-6.554;2022-12-18T01:18:15;100579.46;;;6.95;50.22
40372;BME280;28564;53.346;-6.554;2022-12-18T01:20:42;100583.30;;;7.38;50.21
40372;BME280;28564;53.346;-6.554;2022-12-18T01:23:09;100582.07;;;7.28;50.06
40372;BME280;28564;53.346;-6.554;2022-12-18T01:25:37;100582.72;;;7.43;49.89
40372;BME280;28564;53.346;-6.554;2022-12-18T01:28:05;100576.79;;;7.57;49.79
40372;BME280;28564;53.346;-6.554;2022-12-18T01:30:32;100581.26;;;7.63;49.89
40372;BME280;28564;53.346;-6.554;2022-12-18T01:32:59;100571.35;;;7.65;49.85
40372;BME280;28564;53.346;-6.554;2022-12-18T01:35:27;100577.41;;;7.64;49.91
40372;BME280;28564;53.346;-6.554;2022-12-18T01:37:55;100568.98;;;7.58;50.02
40372;BME280;28564;53.346;-6.554;2022-12-18T01:40:22;100555.90;;;7.53;50.12
40372;BME280;28564;53.346;-6.554;2022-12-18T01:42:51;100550.71;;;7.48;50.28
40372;BME280;28564;53.346;-6.554;2022-12-18T01:45:25;100541.83;;;7.41;50.37
40372;BME280;28564;53.346;-6.554;2022-12-18T01:47:55;100537.10;;;7.33;50.46
40372;BME280;28564;53.346;-6.554;2022-12-18T01:50:25;100535.23;;;7.28;50.62
40372;BME280;28564;53.346;-6.554;2022-12-18T01:52:56;100525.39;;;7.23;50.75
40372;BME280;28564;53.346;-6.554;2022-12-18T01:55:28;100523.07;;;7.23;50.96
40372;BME280;28564;53.346;-6.554;2022-12-18T01:57:59;100510.11;;;7.23;50.99
40372;BME280;28564;53.346;-6.554;2022-12-18T02:00:28;100500.29;;;7.19;51.06
40372;BME280;28564;53.346;-6.554;2022-12-18T02:02:56;100496.15;;;7.14;51.17
40372;BME280;28564;53.346;-6.554;2022-12-18T02:05:33;100495.98;;;7.11;51.28
40372;BME280;28564;53.346;-6.554;2022-12-18T02:08:09;100497.37;;;7.13;51.29
40372;BME280;28564;53.346;-6.554;2022-12-18T02:10:45;100497.06;;;7.12;51.32
40372;BME280;28564;53.346;-6.554;2022-12-18T02:13:19;100501.22;;;7.17;51.18
40372;BME280;28564;53.346;-6.554;2022-12-18T02:15:56;100499.62;;;7.22;51.05
40372;BME280;28564;53.346;-6.554;2022-12-18T02:18:28;100504.29;;;7.26;50.80
40372;BME280;28564;53.346;-6.554;2022-12-18T02:21:04;100499.33;;;7.33;50.51
40372;BME280;28564;53.346;-6.554;2022-12-18T02:23:47;100496.79;;;7.33;50.44
40372;BME280;28564;53.346;-6.554;2022-12-18T02:26:20;100499.11;;;7.36;50.13
40372;BME280;28564;53.346;-6.554;2022-12-18T02:28:55;100497.49;;;7.35;50.23
40372;BME280;28564;53.346;-6.554;2022-12-18T02:31:27;100491.33;;;7.37;50.02
40372;BME280;28564;53.346;-6.554;2022-12-18T02:34:00;100484.88;;;7.38;50.02
40372;BME280;28564;53.346;-6.554;2022-12-18T02:36:30;100486.42;;;7.37;49.92
40372;BME280;28564;53.346;-6.554;2022-12-18T02:39:00;100488.45;;;7.38;49.73
40372;BME280;28564;53.346;-6.554;2022-12-18T02:41:28;100490.11;;;7.37;49.52
40372;BME280;28564;53.346;-6.554;2022-12-18T02:43:59;100485.96;;;7.43;49.01
40372;BME280;28564;53.346;-6.554;2022-12-18T02:46:31;100481.03;;;7.43;48.81
40372;BME280;28564;53.346;-6.554;2022-12-18T02:49:08;100468.44;;;7.46;48.57
40372;BME280;28564;53.346;-6.554;2022-12-18T02:51:46;100459.33;;;7.44;48.47
40372;BME280;28564;53.346;-6.554;2022-12-18T02:54:23;100451.15;;;7.47;48.17
40372;BME280;28564;53.346;-6.554;2022-12-18T02:56:55;100447.65;;;7.27;48.03
40372;BME280;28564;53.346;-6.554;2022-12-18T02:59:30;100443.85;;;7.49;47.87
40372;BME280;28564;53.346;-6.554;2022-12-18T03:02:07;100438.71;;;7.46;47.99
40372;BME280;28564;53.346;-6.554;2022-12-18T03:04:41;100431.90;;;7.42;48.04
40372;BME280;28564;53.346;-6.554;2022-12-18T03:07:20;100414.43;;;7.41;47.97
40372;BME280;28564;53.346;-6.554;2022-12-18T03:09:50;100405.66;;;7.41;48.08
40372;BME280;28564;53.346;-6.554;2022-12-18T03:12:26;100395.67;;;7.38;47.97
40372;BME280;28564;53.346;-6.554;2022-12-18T03:14:59;100387.18;;;7.36;47.96
40372;BME280;28564;53.346;-6.554;2022-12-18T03:17:31;100381.01;;;7.63;47.87
40372;BME280;28564;53.346;-6.554;2022-12-18T03:20:04;100369.75;;;7.39;47.67
40372;BME280;28564;53.346;-6.554;2022-12-18T03:22:34;100359.88;;;7.42;47.51
40372;BME280;28564;53.346;-6.554;2022-12-18T03:25:05;100358.59;;;7.39;47.55
40372;BME280;28564;53.346;-6.554;2022-12-18T03:27:37;100348.25;;;7.38;47.55
40372;BME280;28564;53.346;-6.554;2022-12-18T03:30:08;100349.76;;;7.34;47.69
40372;BME280;28564;53.346;-6.554;2022-12-18T03:32:39;100349.98;;;7.32;47.78
40372;BME280;28564;53.346;-6.554;2022-12-18T03:35:12;100349.59;;;7.35;47.74
40372;BME280;28564;53.346;-6.554;2022-12-18T03:37:40;100356.31;;;7.33;47.85
40372;BME280;28564;53.346;-6.554;2022-12-18T03:40:09;100351.46;;;7.33;47.89
40372;BME280;28564;53.346;-6.554;2022-12-18T03:42:42;100354.92;;;7.37;47.93
40372;BME280;28564;53.346;-6.554;2022-12-18T03:45:18;100357.14;;;7.37;47.98
40372;BME280;28564;53.346;-6.554;2022-12-18T03:47:55;100358.91;;;7.40;48.03
40372;BME280;28564;53.346;-6.554;2022-12-18T03:50:33;100352.15;;;7.46;48.22
40372;BME280;28564;53.346;-6.554;2022-12-18T03:53:11;100349.87;;;7.48;48.41
40372;BME280;28564;53.346;-6.554;2022-12-18T03:55:45;100340.27;;;7.54;48.58
40372;BME280;28564;53.346;-6.554;2022-12-18T03:58:13;100331.03;;;7.58;48.63
40372;BME280;28564;53.346;-6.554;2022-12-18T04:00:43;100325.80;;;7.60;48.64
40372;BME280;28564;53.346;-6.554;2022-12-18T04:03:11;100323.42;;;7.57;48.69
40372;BME280;28564;53.346;-6.554;2022-12-18T04:05:41;100315.44;;;7.70;48.49
40372;BME280;28564;53.346;-6.554;2022-12-18T04:08:10;100307.56;;;7.71;48.57
40372;BME280;28564;53.346;-6.554;2022-12-18T04:10:37;100314.68;;;7.74;48.49
40372;BME280;28564;53.346;-6.554;2022-12-18T04:13:04;100320.31;;;7.75;48.52
40372;BME280;28564;53.346;-6.554;2022-12-18T04:15:34;100323.43;;;7.79;48.43
40372;BME280;28564;53.346;-6.554;2022-12-18T04:18:01;100308.55;;;7.63;48.27
40372;BME280;28564;53.346;-6.554;2022-12-18T04:20:28;100296.36;;;7.86;48.27
40372;BME280;28564;53.346;-6.554;2022-12-18T04:22:56;100285.11;;;7.91;48.10
40372;BME280;28564;53.346;-6.554;2022-12-18T04:25:23;100279.66;;;7.92;48.09
40372;BME280;28564;53.346;-6.554;2022-12-18T04:27:50;100263.08;;;7.89;48.23
40372;BME280;28564;53.346;-6.554;2022-12-18T04:30:17;100257.75;;;7.96;48.09
40372;BME280;28564;53.346;-6.554;2022-12-18T04:32:44;100245.79;;;8.02;47.97
40372;BME280;28564;53.346;-6.554;2022-12-18T04:35:12;100254.96;;;8.09;47.86
40372;BME280;28564;53.346;-6.554;2022-12-18T04:37:39;100255.68;;;7.88;47.88
40372;BME280;28564;53.346;-6.554;2022-12-18T04:40:07;100250.65;;;8.15;47.87
40372;BME280;28564;53.346;-6.554;2022-12-18T04:42:34;100245.63;;;8.14;48.02
40372;BME280;28564;53.346;-6.554;2022-12-18T04:45:01;100240.85;;;8.17;47.97
40372;BME280;28564;53.346;-6.554;2022-12-18T04:47:28;100240.04;;;8.22;47.94
40372;BME280;28564;53.346;-6.554;2022-12-18T04:49:56;100234.00;;;8.01;47.97
40372;BME280;28564;53.346;-6.554;2022-12-18T04:52:23;100231.13;;;8.26;47.90
40372;BME280;28564;53.346;-6.554;2022-12-18T04:54:50;100217.28;;;8.06;47.97
40372;BME280;28564;53.346;-6.554;2022-12-18T04:57:17;100214.75;;;8.27;48.15
40372;BME280;28564;53.346;-6.554;2022-12-18T04:59:45;100211.13;;;8.30;48.29
40372;BME280;28564;53.346;-6.554;2022-12-18T05:02:12;100205.33;;;8.10;48.31
40372;BME280;28564;53.346;-6.554;2022-12-18T05:04:39;100198.28;;;8.29;48.49
40372;BME280;28564;53.346;-6.554;2022-12-18T05:07:06;100188.56;;;8.33;48.38
40372;BME280;28564;53.346;-6.554;2022-12-18T05:09:34;100179.62;;;8.13;48.40
40372;BME280;28564;53.346;-6.554;2022-12-18T05:12:01;100170.89;;;8.32;48.51
40372;BME280;28564;53.346;-6.554;2022-12-18T05:14:28;100163.18;;;8.31;48.59
40372;BME280;28564;53.346;-6.554;2022-12-18T05:16:55;100160.18;;;8.11;48.59
40372;BME280;28564;53.346;-6.554;2022-12-18T05:19:23;100149.39;;;8.09;48.66
40372;BME280;28564;53.346;-6.554;2022-12-18T05:21:50;100147.84;;;8.10;48.67
40372;BME280;28564;53.346;-6.554;2022-12-18T05:24:17;100150.89;;;7.88;48.69
40372;BME280;28564;53.346;-6.554;2022-12-18T05:26:45;100143.80;;;8.38;48.59
40372;BME280;28564;53.346;-6.554;2022-12-18T05:29:12;100136.22;;;8.46;48.53
40372;BME280;28564;53.346;-6.554;2022-12-18T05:31:39;100134.38;;;8.29;48.44
40372;BME280;28564;53.346;-6.554;2022-12-18T05:34:06;100122.09;;;8.28;48.58
40372;BME280;28564;53.346;-6.554;2022-12-18T05:36:34;100115.45;;;8.34;48.47
40372;BME280;28564;53.346;-6.554;2022-12-18T05:39:01;100113.31;;;8.62;48.44
40372;BME280;28564;53.346;-6.554;2022-12-18T05:41:28;100108.85;;;8.50;48.39
40372;BME280;28564;53.346;-6.554;2022-12-18T05:43:56;100116.98;;;8.70;48.58
40372;BME280;28564;53.346;-6.554;2022-12-18T05:46:23;100114.32;;;8.27;48.65
40372;BME280;28564;53.346;-6.554;2022-12-18T05:48:50;100109.68;;;8.46;48.80
40372;BME280;28564;53.346;-6.554;2022-12-18T05:51:20;100106.58;;;8.28;48.82
40372;BME280;28564;53.346;-6.554;2022-12-18T05:53:47;100099.75;;;8.54;48.84
40372;BME280;28564;53.346;-6.554;2022-12-18T05:56:17;100094.56;;;8.54;48.89
40372;BME280;28564;53.346;-6.554;2022-12-18T05:58:45;100081.87;;;8.56;48.94
40372;BME280;28564;53.346;-6.554;2022-12-18T06:01:15;100077.96;;;8.34;49.04
40372;BME280;28564;53.346;-6.554;2022-12-18T06:03:42;100076.83;;;8.50;49.23
40372;BME280;28564;53.346;-6.554;2022-12-18T06:06:14;100070.14;;;8.48;49.27
40372;BME280;28564;53.346;-6.554;2022-12-18T06:08:41;100063.96;;;8.41;49.47
40372;BME280;28564;53.346;-6.554;2022-12-18T06:11:08;100055.73;;;8.44;49.42
40372;BME280;28564;53.346;-6.554;2022-12-18T06:13:36;100040.15;;;8.46;49.33
40372;BME280;28564;53.346;-6.554;2022-12-18T06:16:04;100029.62;;;8.47;49.24
40372;BME280;28564;53.346;-6.554;2022-12-18T06:18:31;100024.86;;;8.45;49.25
40372;BME280;28564;53.346;-6.554;2022-12-18T06:20:59;100021.38;;;8.45;49.13
40372;BME280;28564;53.346;-6.554;2022-12-18T06:23:27;100024.68;;;8.43;49.12
40372;BME280;28564;53.346;-6.554;2022-12-18T06:25:54;100027.06;;;8.60;49.27
40372;BME280;28564;53.346;-6.554;2022-12-18T06:28:21;100029.38;;;8.65;49.04
40372;BME280;28564;53.346;-6.554;2022-12-18T06:30:50;100025.86;;;8.61;49.13
40372;BME280;28564;53.346;-6.554;2022-12-18T06:33:18;100011.37;;;8.20;48.97
40372;BME280;28564;53.346;-6.554;2022-12-18T06:35:45;99995.82;;;8.37;49.08
40372;BME280;28564;53.346;-6.554;2022-12-18T06:38:12;99995.70;;;8.30;49.30
40372;BME280;28564;53.346;-6.554;2022-12-18T06:40:39;100001.95;;;8.52;49.24
40372;BME280;28564;53.346;-6.554;2022-12-18T06:43:06;99989.17;;;8.35;48.73
40372;BME280;28564;53.346;-6.554;2022-12-18T06:45:34;99983.10;;;8.34;48.39
40372;BME280;28564;53.346;-6.554;2022-12-18T06:48:01;99983.82;;;8.55;48.15
40372;BME280;28564;53.346;-6.554;2022-12-18T06:50:28;99965.84;;;8.32;47.83
40372;BME280;28564;53.346;-6.554;2022-12-18T06:52:55;99953.90;;;8.07;47.63
40372;BME280;28564;53.346;-6.554;2022-12-18T06:55:23;99937.16;;;8.29;46.90
40372;BME280;28564;53.346;-6.554;2022-12-18T06:57:50;99937.76;;;8.48;46.94
40372;BME280;28564;53.346;-6.554;2022-12-18T07:00:18;99934.48;;;8.42;46.94
40372;BME280;28564;53.346;-6.554;2022-12-18T07:02:45;99918.72;;;8.17;46.55
40372;BME280;28564;53.346;-6.554;2022-12-18T07:05:13;99914.54;;;8.12;46.69
40372;BME280;28564;53.346;-6.554;2022-12-18T07:07:40;99916.36;;;8.31;46.39
40372;BME280;28564;53.346;-6.554;2022-12-18T07:10:08;99917.21;;;8.28;46.33
40372;BME280;28564;53.346;-6.554;2022-12-18T07:12:36;99918.25;;;8.06;46.12
40372;BME280;28564;53.346;-6.554;2022-12-18T07:15:04;99906.61;;;8.23;46.28
40372;BME280;28564;53.346;-6.554;2022-12-18T07:17:31;99899.43;;;7.91;46.63
40372;BME280;28564;53.346;-6.554;2022-12-18T07:19:58;99887.74;;;7.71;46.60
40372;BME280;28564;53.346;-6.554;2022-12-18T07:22:26;99889.53;;;8.14;46.48
40372;BME280;28564;53.346;-6.554;2022-12-18T07:24:53;99888.40;;;8.13;46.42
40372;BME280;28564;53.346;-6.554;2022-12-18T07:27:20;99889.84;;;8.11;46.50
40372;BME280;28564;53.346;-6.554;2022-12-18T07:29:48;99889.31;;;7.85;46.65
40372;BME280;28564;53.346;-6.554;2022-12-18T07:32:15;99892.89;;;8.06;46.81
40372;BME280;28564;53.346;-6.554;2022-12-18T07:34:42;99889.74;;;7.87;46.69
40372;BME280;28564;53.346;-6.554;2022-12-18T07:37:09;99876.78;;;7.86;46.71
40372;BME280;28564;53.346;-6.554;2022-12-18T07:39:37;99882.71;;;8.07;46.76
40372;BME280;28564;53.346;-6.554;2022-12-18T07:42:04;99860.09;;;8.04;46.84
40372;BME280;28564;53.346;-6.554;2022-12-18T07:44:31;99852.24;;;8.03;46.85
40372;BME280;28564;53.346;-6.554;2022-12-18T07:46:59;99837.99;;;8.01;47.02
40372;BME280;28564;53.346;-6.554;2022-12-18T07:49:26;99826.70;;;8.02;47.19
40372;BME280;28564;53.346;-6.554;2022-12-18T07:51:55;99804.55;;;8.01;47.44
40372;BME280;28564;53.346;-6.554;2022-12-18T07:54:23;99800.22;;;7.80;47.64
40372;BME280;28564;53.346;-6.554;2022-12-18T07:56:51;99793.02;;;8.02;47.80
40372;BME280;28564;53.346;-6.554;2022-12-18T07:59:19;99768.79;;;7.83;47.81
40372;BME280;28564;53.346;-6.554;2022-12-18T08:01:47;99757.39;;;7.85;47.92
40372;BME280;28564;53.346;-6.554;2022-12-18T08:04:14;99758.39;;;8.05;48.06
40372;BME280;28564;53.346;-6.554;2022-12-18T08:06:42;99757.53;;;8.05;48.14
40372;BME280;28564;53.346;-6.554;2022-12-18T08:09:10;99753.94;;;8.08;48.12
40372;BME280;28564;53.346;-6.554;2022-12-18T08:11:37;99739.90;;;7.85;48.29
40372;BME280;28564;53.346;-6.554;2022-12-18T08:14:05;99746.82;;;8.09;48.30
40372;BME280;28564;53.346;-6.554;2022-12-18T08:16:32;99728.41;;;8.08;48.38
40372;BME280;28564;53.346;-6.554;2022-12-18T08:18:59;99736.16;;;8.10;48.39
40372;BME280;28564;53.346;-6.554;2022-12-18T08:21:29;99731.38;;;8.09;48.53
40372;BME280;28564;53.346;-6.554;2022-12-18T08:23:58;99731.54;;;8.11;48.62
40372;BME280;28564;53.346;-6.554;2022-12-18T08:26:27;99730.52;;;8.13;48.67
40372;BME280;28564;53.346;-6.554;2022-12-18T08:28:56;99728.73;;;7.92;48.74
40372;BME280;28564;53.346;-6.554;2022-12-18T08:31:24;99716.59;;;8.15;48.70
40372;BME280;28564;53.346;-6.554;2022-12-18T08:33:52;99704.94;;;8.24;48.50
40372;BME280;28564;53.346;-6.554;2022-12-18T08:36:20;99690.17;;;8.01;48.37
40372;BME280;28564;53.346;-6.554;2022-12-18T08:38:48;99687.59;;;7.99;48.36
40372;BME280;28564;53.346;-6.554;2022-12-18T08:41:17;99681.69;;;8.17;48.36
40372;BME280;28564;53.346;-6.554;2022-12-18T08:43:44;99669.79;;;8.17;48.31
40372;BME280;28564;53.346;-6.554;2022-12-18T08:46:11;99666.94;;;8.11;48.41
40372;BME280;28564;53.346;-6.554;2022-12-18T08:48:38;99660.75;;;8.04;48.57
40372;BME280;28564;53.346;-6.554;2022-12-18T08:51:05;99666.94;;;8.00;48.80
40372;BME280;28564;53.346;-6.554;2022-12-18T08:53:33;99660.40;;;7.81;48.95
40372;BME280;28564;53.346;-6.554;2022-12-18T08:56:00;99662.40;;;8.05;49.09
40372;BME280;28564;53.346;-6.554;2022-12-18T08:58:27;99667.48;;;8.08;49.21
40372;BME280;28564;53.346;-6.554;2022-12-18T09:00:59;99669.22;;;7.88;49.30
40372;BME280;28564;53.346;-6.554;2022-12-18T09:03:27;99672.27;;;8.16;49.32
40372;BME280;28564;53.346;-6.554;2022-12-18T09:05:54;99674.67;;;7.97;49.39
40372;BME280;28564;53.346;-6.554;2022-12-18T09:08:21;99673.20;;;8.05;49.39
40372;BME280;28564;53.346;-6.554;2022-12-18T09:10:50;99665.40;;;8.09;49.45
40372;BME280;28564;53.346;-6.554;2022-12-18T09:13:17;99673.57;;;8.35;49.45
40372;BME280;28564;53.346;-6.554;2022-12-18T09:15:47;99659.87;;;8.19;49.31
40372;BME280;28564;53.346;-6.554;2022-12-18T09:18:15;99657.32;;;8.02;49.31
40372;BME280;28564;53.346;-6.554;2022-12-18T09:20:43;99638.12;;;8.28;49.27
40372;BME280;28564;53.346;-6.554;2022-12-18T09:23:10;99643.37;;;8.33;49.32
40372;BME280;28564;53.346;-6.554;2022-12-18T09:25:38;99623.64;;;8.62;49.30
40372;BME280;28564;53.346;-6.554;2022-12-18T09:28:09;99617.15;;;8.21;49.25
40372;BME280;28564;53.346;-6.554;2022-12-18T09:30:37;99615.96;;;8.43;49.38
40372;BME280;28564;53.346;-6.554;2022-12-18T09:33:04;99607.80;;;8.70;49.41
40372;BME280;28564;53.346;-6.554;2022-12-18T09:35:32;99617.08;;;8.53;49.43
40372;BME280;28564;53.346;-6.554;2022-12-18T09:37:59;99618.91;;;8.59;49.38
40372;BME280;28564;53.346;-6.554;2022-12-18T09:40:31;99620.31;;;8.65;49.42
40372;BME280;28564;53.346;-6.554;2022-12-18T09:43:04;99603.01;;;8.55;49.33
40372;BME280;28564;53.346;-6.554;2022-12-18T09:45:38;99599.96;;;8.67;49.15
40372;BME280;28564;53.346;-6.554;2022-12-18T09:48:10;99590.90;;;8.71;49.15
40372;BME280;28564;53.346;-6.554;2022-12-18T09:50:41;99598.71;;;8.96;49.26
40372;BME280;28564;53.346;-6.554;2022-12-18T09:53:14;99588.87;;;9.06;49.08
40372;BME280;28564;53.346;-6.554;2022-12-18T09:55:44;99583.12;;;8.97;48.85
40372;BME280;28564;53.346;-6.554;2022-12-18T09:58:17;99581.28;;;8.75;48.75
40372;BME280;28564;53.346;-6.554;2022-12-18T10:00:46;99573.42;;;9.05;48.80
40372;BME280;28564;53.346;-6.554;2022-12-18T10:03:14;99583.47;;;9.12;48.74
40372;BME280;28564;53.346;-6.554;2022-12-18T10:05:47;99569.36;;;9.18;48.63
40372;BME280;28564;53.346;-6.554;2022-12-18T10:08:22;99563.86;;;9.24;48.58
40372;BME280;28564;53.346;-6.554;2022-12-18T10:10:53;99540.38;;;9.04;48.39
40372;BME280;28564;53.346;-6.554;2022-12-18T10:13:30;99551.07;;;9.31;48.48
40372;BME280;28564;53.346;-6.554;2022-12-18T10:16:07;99539.26;;;9.34;48.46
40372;BME280;28564;53.346;-6.554;2022-12-18T10:18:58;99537.77;;;9.38;48.48
40372;BME280;28564;53.346;-6.554;2022-12-18T10:21:33;99522.81;;;9.44;48.32
40372;BME280;28564;53.346;-6.554;2022-12-18T10:24:15;99531.61;;;9.44;48.42
40372;BME280;28564;53.346;-6.554;2022-12-18T10:26:45;99527.82;;;9.44;48.54
40372;BME280;28564;53.346;-6.554;2022-12-18T10:29:15;99521.80;;;9.21;48.54
40372;BME280;28564;53.346;-6.554;2022-12-18T10:31:43;99515.34;;;9.57;48.40
40372;BME280;28564;53.346;-6.554;2022-12-18T10:34:14;99501.94;;;9.35;48.30
40372;BME280;28564;53.346;-6.554;2022-12-18T10:36:42;99495.16;;;9.67;48.30
40372;BME280;28564;53.346;-6.554;2022-12-18T10:39:19;99494.02;;;9.71;48.38
40372;BME280;28564;53.346;-6.554;2022-12-18T10:41:47;99476.13;;;9.35;48.19
40372;BME280;28564;53.346;-6.554;2022-12-18T10:44:18;99485.32;;;9.39;48.24
40372;BME280;28564;53.346;-6.554;2022-12-18T10:46:47;99470.51;;;9.49;48.16
40372;BME280;28564;53.346;-6.554;2022-12-18T10:49:22;99481.24;;;9.80;48.16
40372;BME280;28564;53.346;-6.554;2022-12-18T10:51:51;99478.42;;;9.61;48.28
40372;BME280;28564;53.346;-6.554;2022-12-18T10:54:21;99464.26;;;9.71;48.27
40372;BME280;28564;53.346;-6.554;2022-12-18T10:56:49;99457.77;;;9.74;48.37
40372;BME280;28564;53.346;-6.554;2022-12-18T10:59:17;99459.63;;;9.82;48.42
40372;BME280;28564;53.346;-6.554;2022-12-18T11:01:49;99458.01;;;10.13;48.48
40372;BME280;28564;53.346;-6.554;2022-12-18T11:04:19;99445.07;;;9.98;48.58
40372;BME280;28564;53.346;-6.554;2022-12-18T11:06:58;99436.35;;;10.08;48.52
40372;BME280;28564;53.346;-6.554;2022-12-18T11:09:27;99440.21;;;10.15;48.53
40372;BME280;28564;53.346;-6.554;2022-12-18T11:11:57;99424.13;;;10.23;48.58
40372;BME280;28564;53.346;-6.554;2022-12-18T11:14:26;99417.96;;;10.05;48.51
40372;BME280;28564;53.346;-6.554;2022-12-18T11:16:55;99407.94;;;10.09;48.68
40372;BME280;28564;53.346;-6.554;2022-12-18T11:19:31;99405.85;;;10.14;48.82
40372;BME280;28564;53.346;-6.554;2022-12-18T11:21:58;99405.22;;;10.23;48.78
40372;BME280;28564;53.346;-6.554;2022-12-18T11:24:30;99385.06;;;10.28;48.87
40372;BME280;28564;53.346;-6.554;2022-12-18T11:26:59;99379.73;;;10.29;48.96
40372;BME280;28564;53.346;-6.554;2022-12-18T11:29:33;99376.72;;;10.60;49.09
40372;BME280;28564;53.346;-6.554;2022-12-18T11:32:24;99375.20;;;10.66;49.07
40372;BME280;28564;53.346;-6.554;2022-12-18T11:34:58;99374.06;;;10.41;49.05
40372;BME280;28564;53.346;-6.554;2022-12-18T11:37:27;99365.59;;;10.41;49.18
40372;BME280;28564;53.346;-6.554;2022-12-18T11:39:57;99359.51;;;10.73;49.31
40372;BME280;28564;53.346;-6.554;2022-12-18T11:42:34;99355.07;;;10.56;49.28
40372;BME280;28564;53.346;-6.554;2022-12-18T11:45:17;99339.91;;;10.47;49.10
40372;BME280;28564;53.346;-6.554;2022-12-18T11:47:54;99342.11;;;10.77;49.05
40372;BME280;28564;53.346;-6.554;2022-12-18T11:50:25;99333.25;;;10.81;49.16
40372;BME280;28564;53.346;-6.554;2022-12-18T11:52:55;99337.84;;;10.86;49.26
40372;BME280;28564;53.346;-6.554;2022-12-18T11:55:29;99320.79;;;10.72;49.22
40372;BME280;28564;53.346;-6.554;2022-12-18T11:58:05;99311.42;;;10.80;49.20
40372;BME280;28564;53.346;-6.554;2022-12-18T12:00:39;99312.10;;;10.92;49.05
40372;BME280;28564;53.346;-6.554;2022-12-18T12:03:23;99298.35;;;10.97;49.13
40372;BME280;28564;53.346;-6.554;2022-12-18T12:06:03;99300.16;;;11.07;48.88
40372;BME280;28564;53.346;-6.554;2022-12-18T12:08:46;99291.71;;;11.16;48.66
40372;BME280;28564;53.346;-6.554;2022-12-18T12:11:20;99288.87;;;11.10;48.84
40372;BME280;28564;53.346;-6.554;2022-12-18T12:14:05;99272.57;;;11.10;48.89
40372;BME280;28564;53.346;-6.554;2022-12-18T12:16:39;99268.75;;;11.08;49.16
40372;BME280;28564;53.346;-6.554;2022-12-18T12:19:23;99267.58;;;11.14;49.25
40372;BME280;28564;53.346;-6.554;2022-12-18T12:22:02;99269.11;;;11.31;49.13
40372;BME280;28564;53.346;-6.554;2022-12-18T12:24:44;99255.43;;;11.43;48.98
40372;BME280;28564;53.346;-6.554;2022-12-18T12:27:20;99256.23;;;11.61;48.77
40372;BME280;28564;53.346;-6.554;2022-12-18T12:30:02;99230.79;;;11.23;48.75
40372;BME280;28564;53.346;-6.554;2022-12-18T12:32:41;99228.15;;;11.38;48.66
40372;BME280;28564;53.346;-6.554;2022-12-18T12:35:24;99225.28;;;11.60;48.61
40372;BME280;28564;53.346;-6.554;2022-12-18T12:38:00;99206.65;;;11.83;48.28
40372;BME280;28564;53.346;-6.554;2022-12-18T12:40:35;99201.01;;;12.13;47.92
40372;BME280;28564;53.346;-6.554;2022-12-18T12:43:10;99185.43;;;12.35;47.70
40372;BME280;28564;53.346;-6.554;2022-12-18T12:45:42;99191.74;;;12.48;47.74
40372;BME280;28564;53.346;-6.554;2022-12-18T12:48:19;99159.84;;;12.65;47.29
40372;BME280;28564;53.346;-6.554;2022-12-18T12:50:48;99153.89;;;12.54;47.26
40372;BME280;28564;53.346;-6.554;2022-12-18T12:53:23;99150.41;;;12.85;47.17
40372;BME280;28564;53.346;-6.554;2022-12-18T12:55:54;99144.59;;;12.71;47.13
40372;BME280;28564;53.346;-6.554;2022-12-18T12:58:31;99134.97;;;12.73;47.23
40372;BME280;28564;53.346;-6.554;2022-12-18T13:01:20;99137.27;;;13.03;47.26
40372;BME280;28564;53.346;-6.554;2022-12-18T13:04:01;99127.50;;;13.12;47.13
40372;BME280;28564;53.346;-6.554;2022-12-18T13:06:39;99122.67;;;13.18;47.25
40372;BME280;28564;53.346;-6.554;2022-12-18T13:09:09;99110.65;;;13.25;47.21